Time;durP1;ratioP1;P1;durP2;ratioP2;P2;SDS_P1;SDS_P2;PMS_P1;PMS_P2;Temp;Humidity;BMP_temperature;BMP_pressure;BME280_temperature;BME280_humidity;BME280_pressure;Samples;Min_cycle;Max_cycle;Signal;HPM_P1;HPM_P2
2023/04/02 00:00:10;;;;;;;1.37;1.27;;;7.70;99.90;;;;;;4980724;28;20457;-68
2023/04/02 00:02:57;;;;;;;1.13;0.80;;;7.80;99.90;;;;;;4982899;28;20443;-68
2023/04/02 00:05:33;;;;;;;2.83;0.63;;;7.80;99.90;;;;;;4981049;28;20431;-68
2023/04/02 00:08:23;;;;;;;0.83;0.83;;;7.80;99.90;;;;;;4982214;28;20442;-68
2023/04/02 00:10:57;;;;;;;1.57;0.70;;;7.70;99.90;;;;;;4983115;28;20518;-68
2023/04/02 00:13:30;;;;;;;2.27;0.90;;;7.70;99.90;;;;;;4989294;28;20444;-67
2023/04/02 00:15:58;;;;;;;1.63;0.80;;;7.70;99.90;;;;;;4986520;28;20457;-66
2023/04/02 00:18:24;;;;;;;0.87;0.80;;;7.80;99.90;;;;;;4982492;28;20450;-67
2023/04/02 00:20:59;;;;;;;1.37;0.60;;;7.80;99.90;;;;;;4997631;28;20470;-68
2023/04/02 00:23:25;;;;;;;1.40;0.80;;;7.80;99.90;;;;;;4996438;28;20430;-68
2023/04/02 00:25:50;;;;;;;1.10;0.80;;;7.80;99.90;;;;;;4992212;28;20474;-68
2023/04/02 00:28:19;;;;;;;1.00;0.80;;;7.80;99.90;;;;;;4994395;28;20982;-68
2023/04/02 00:30:51;;;;;;;0.97;0.80;;;7.80;99.90;;;;;;5001786;28;20668;-68
2023/04/02 00:33:19;;;;;;;0.90;0.90;;;7.80;99.90;;;;;;4997317;28;20938;-68
2023/04/02 00:35:46;;;;;;;1.10;0.90;;;7.80;99.90;;;;;;4991004;28;20794;-68
2023/04/02 00:38:31;;;;;;;1.20;0.83;;;7.80;99.90;;;;;;4986805;28;20477;-66
2023/04/02 00:41:01;;;;;;;0.97;0.83;;;7.80;99.90;;;;;;5009503;28;20548;-68
2023/04/02 00:43:34;;;;;;;0.83;0.83;;;7.80;99.90;;;;;;4996397;28;20438;-67
2023/04/02 00:46:04;;;;;;;1.33;0.90;;;7.80;99.90;;;;;;4994450;28;20442;-68
2023/04/02 00:48:32;;;;;;;0.83;0.70;;;7.90;99.90;;;;;;4994013;28;20435;-67
2023/04/02 00:51:18;;;;;;;1.43;1.07;;;7.90;99.90;;;;;;4995308;28;20462;-68
2023/04/02 00:53:46;;;;;;;1.83;0.70;;;7.90;99.90;;;;;;4990140;28;20437;-67
2023/04/02 00:56:17;;;;;;;0.80;0.70;;;7.90;99.90;;;;;;4993814;28;20441;-67
2023/04/02 00:58:44;;;;;;;0.80;0.70;;;7.90;99.90;;;;;;5001510;28;20444;-68
2023/04/02 01:01:19;;;;;;;1.20;1.00;;;8.00;99.90;;;;;;5009408;28;20474;-68
2023/04/02 01:03:57;;;;;;;0.80;0.80;;;8.00;99.90;;;;;;4992608;28;20454;-67
2023/04/02 01:06:28;;;;;;;1.80;1.47;;;7.90;99.90;;;;;;4993435;28;20504;-68
2023/04/02 01:09:17;;;;;;;1.03;0.60;;;8.00;99.90;;;;;;4993068;28;20462;-68
2023/04/02 01:12:00;;;;;;;0.80;0.63;;;8.00;99.90;;;;;;4993655;28;20557;-68
2023/04/02 01:14:53;;;;;;;0.90;0.77;;;8.00;99.90;;;;;;4987972;28;20442;-67
2023/04/02 01:17:21;;;;;;;0.80;0.80;;;8.00;99.90;;;;;;4989840;28;20450;-66
2023/04/02 01:20:22;;;;;;;0.60;0.60;;;8.10;99.90;;;;;;4992215;28;20834;-67
2023/04/02 01:23:04;;;;;;;1.17;0.70;;;8.10;99.90;;;;;;4988040;28;20443;-67
2023/04/02 01:25:53;;;;;;;0.73;0.70;;;8.10;99.90;;;;;;4997313;28;20446;-67
2023/04/02 01:28:26;;;;;;;2.40;0.60;;;8.10;99.90;;;;;;4990141;28;20439;-67
2023/04/02 01:30:55;;;;;;;0.90;0.80;;;8.10;99.90;;;;;;4990656;28;20974;-67
2023/04/02 01:33:22;;;;;;;0.87;0.80;;;8.20;99.90;;;;;;4995246;28;21407;-68
2023/04/02 01:35:57;;;;;;;0.70;0.70;;;8.20;99.90;;;;;;4995900;28;20853;-68
2023/04/02 01:38:28;;;;;;;1.80;0.90;;;8.20;99.90;;;;;;4984865;28;20434;-67
2023/04/02 01:41:02;;;;;;;1.20;0.90;;;8.20;99.90;;;;;;4983991;28;21065;-67
2023/04/02 01:43:47;;;;;;;1.30;1.07;;;8.30;99.90;;;;;;4986368;28;20437;-68
2023/04/02 01:46:29;;;;;;;0.90;0.90;;;8.30;99.90;;;;;;4985590;28;20501;-68
2023/04/02 01:48:56;;;;;;;1.80;0.90;;;8.30;99.90;;;;;;4983868;28;20481;-66
2023/04/02 01:51:43;;;;;;;0.93;0.90;;;8.30;99.90;;;;;;4986015;28;20904;-68
2023/04/02 01:54:09;;;;;;;1.00;0.90;;;8.30;99.90;;;;;;4984427;28;20514;-66
2023/04/02 01:56:35;;;;;;;1.40;0.70;;;8.30;99.90;;;;;;4984656;28;21146;-67
2023/04/02 01:59:04;;;;;;;0.93;0.77;;;8.30;99.90;;;;;;4984370;28;20438;-68
2023/04/02 02:01:36;;;;;;;1.27;0.70;;;8.30;99.90;;;;;;4983782;28;20665;-68
2023/04/02 02:04:02;;;;;;;1.37;0.80;;;8.30;99.90;;;;;;4984868;28;20439;-68
2023/04/02 02:06:28;;;;;;;1.33;0.80;;;8.30;99.90;;;;;;4985372;28;20989;-68
2023/04/02 02:09:06;;;;;;;0.60;0.60;;;8.30;99.90;;;;;;4989330;28;20434;-68
2023/04/02 02:11:35;;;;;;;1.80;0.80;;;8.30;99.90;;;;;;4986577;28;20227;-68
2023/04/02 02:14:11;;;;;;;1.73;0.90;;;8.30;99.90;;;;;;4989313;28;20537;-65
2023/04/02 02:16:40;;;;;;;1.00;0.80;;;8.30;99.90;;;;;;4988247;28;20867;-67
2023/04/02 02:19:16;;;;;;;0.60;0.57;;;8.30;99.90;;;;;;4984594;28;20450;-67
2023/04/02 02:21:51;;;;;;;1.73;0.80;;;8.30;99.90;;;;;;4989696;28;20465;-68
2023/04/02 02:24:30;;;;;;;3.70;0.70;;;8.30;99.90;;;;;;4993202;28;20513;-67
2023/04/02 02:27:23;;;;;;;0.80;0.53;;;8.30;99.90;;;;;;4989528;28;20944;-67
2023/04/02 02:29:50;;;;;;;0.77;0.77;;;8.30;99.90;;;;;;4992814;28;20451;-68
2023/04/02 02:32:18;;;;;;;0.70;0.70;;;8.30;99.90;;;;;;5002828;28;20504;-67
2023/04/02 02:34:51;;;;;;;3.93;0.70;;;8.30;99.90;;;;;;5001659;28;20466;-68
2023/04/02 02:37:27;;;;;;;0.80;0.80;;;8.30;99.90;;;;;;4998920;28;20469;-66
2023/04/02 02:39:56;;;;;;;0.63;0.63;;;8.30;99.90;;;;;;4987439;28;20590;-68
2023/04/02 02:42:34;;;;;;;2.90;0.90;;;8.30;99.90;;;;;;5002126;28;20465;-68
2023/04/02 02:45:03;;;;;;;1.23;0.90;;;8.30;99.90;;;;;;4992671;28;20462;-68
2023/04/02 02:47:36;;;;;;;1.03;0.77;;;8.20;99.90;;;;;;4992479;28;20438;-68
2023/04/02 02:50:09;;;;;;;1.10;1.00;;;8.30;99.90;;;;;;4991869;28;20458;-68
2023/04/02 02:52:37;;;;;;;1.30;0.80;;;8.30;99.90;;;;;;4992534;28;20442;-69
2023/04/02 02:55:07;;;;;;;0.70;0.70;;;8.30;99.90;;;;;;4989612;28;20546;-67
2023/04/02 02:57:38;;;;;;;0.60;0.60;;;8.30;99.90;;;;;;4990387;28;20455;-68
2023/04/02 03:00:07;;;;;;;2.47;0.87;;;8.30;99.90;;;;;;4990689;28;20502;-68
2023/04/02 03:02:36;;;;;;;0.83;0.80;;;8.30;99.90;;;;;;4993494;28;20473;-68
2023/04/02 03:05:03;;;;;;;2.40;1.00;;;8.30;99.90;;;;;;4992235;28;20530;-68
2023/04/02 03:07:30;;;;;;;1.37;0.93;;;8.30;99.90;;;;;;4992060;28;20814;-67
2023/04/02 03:10:41;;;;;;;0.90;0.90;;;8.30;99.90;;;;;;4987852;28;20561;-67
2023/04/02 03:13:14;;;;;;;1.67;1.07;;;8.30;99.90;;;;;;4985815;28;20492;-68
2023/04/02 03:15:54;;;;;;;0.70;0.70;;;8.30;99.90;;;;;;4975812;28;20851;-68
2023/04/02 03:18:44;;;;;;;1.10;1.10;;;8.30;99.90;;;;;;4986128;28;20811;-68
2023/04/02 03:21:23;;;;;;;3.83;0.90;;;8.30;99.90;;;;;;4985058;28;20497;-67
2023/04/02 03:23:55;;;;;;;1.10;0.83;;;8.30;99.90;;;;;;4998986;28;20520;-68
2023/04/02 03:26:35;;;;;;;2.13;1.00;;;8.40;99.90;;;;;;4997902;28;20433;-67
2023/04/02 03:29:12;;;;;;;2.03;0.97;;;8.40;99.90;;;;;;4994712;28;20442;-68
2023/04/02 03:31:43;;;;;;;2.73;1.13;;;8.40;99.90;;;;;;4991439;28;20830;-68
2023/04/02 03:34:17;;;;;;;1.20;1.10;;;8.40;99.90;;;;;;4996383;28;20445;-68
2023/04/02 03:36:55;;;;;;;0.80;0.80;;;8.30;99.90;;;;;;4997943;28;20790;-68
2023/04/02 03:39:39;;;;;;;0.70;0.70;;;8.30;99.90;;;;;;4992081;28;20426;-68
2023/04/02 03:42:12;;;;;;;1.27;0.87;;;8.40;99.90;;;;;;4973574;28;20459;-68
2023/04/02 03:44:46;;;;;;;1.20;1.10;;;8.40;99.90;;;;;;4973613;28;20423;-67
2023/04/02 03:47:33;;;;;;;0.93;0.90;;;8.50;99.90;;;;;;4979056;28;20433;-68
2023/04/02 03:50:36;;;;;;;0.90;0.90;;;8.50;99.90;;;;;;4986974;28;20466;-66
2023/04/02 03:53:03;;;;;;;1.03;0.90;;;8.50;99.90;;;;;;4978047;28;21704;-67
2023/04/02 03:55:36;;;;;;;1.03;0.93;;;8.50;99.90;;;;;;4980074;28;20470;-68
2023/04/02 03:58:26;;;;;;;0.80;0.80;;;8.50;99.90;;;;;;4982015;28;20486;-66
2023/04/02 04:01:12;;;;;;;1.00;0.80;;;8.50;99.90;;;;;;4981651;28;20519;-68
2023/04/02 04:03:45;;;;;;;1.60;1.00;;;8.50;99.90;;;;;;4985348;28;20576;-67
2023/04/02 04:06:22;;;;;;;1.00;0.80;;;8.50;99.90;;;;;;4980714;28;20441;-68
2023/04/02 04:08:57;;;;;;;1.57;0.80;;;8.40;99.90;;;;;;4983581;28;20445;-68
2023/04/02 04:11:32;;;;;;;0.73;0.70;;;8.40;99.90;;;;;;4985837;28;21009;-67
2023/04/02 04:14:26;;;;;;;1.03;1.00;;;8.40;99.90;;;;;;4990014;28;20442;-68
2023/04/02 04:17:03;;;;;;;0.73;0.73;;;8.40;99.90;;;;;;5005610;28;20844;-68
2023/04/02 04:19:40;;;;;;;1.30;1.03;;;8.50;99.90;;;;;;4986978;28;20434;-68
2023/04/02 04:22:29;;;;;;;4.20;1.07;;;8.40;99.90;;;;;;4991754;28;20458;-68
2023/04/02 04:24:56;;;;;;;1.30;0.67;;;8.40;99.90;;;;;;4998048;28;20466;-68
2023/04/02 04:27:33;;;;;;;1.73;0.77;;;8.40;99.90;;;;;;4991828;28;20776;-68
2023/04/02 04:30:40;;;;;;;1.13;0.87;;;8.40;99.90;;;;;;4989020;28;20458;-68
2023/04/02 04:33:24;;;;;;;1.10;0.73;;;8.40;99.90;;;;;;4996871;28;20537;-69
2023/04/02 04:35:55;;;;;;;0.70;0.70;;;8.40;99.90;;;;;;4997885;28;20443;-68
2023/04/02 04:38:31;;;;;;;1.00;0.80;;;8.40;99.90;;;;;;4993918;28;20525;-68
2023/04/02 04:41:04;;;;;;;0.90;0.90;;;8.40;99.90;;;;;;4989696;28;20466;-69
2023/04/02 04:43:39;;;;;;;0.83;0.80;;;8.40;99.90;;;;;;4989776;28;20527;-68
2023/04/02 04:46:29;;;;;;;2.10;1.10;;;8.40;99.90;;;;;;4991034;28;20461;-68
2023/04/02 04:49:10;;;;;;;1.23;0.77;;;8.30;99.90;;;;;;4989425;28;20434;-68
2023/04/02 04:51:55;;;;;;;3.90;1.47;;;8.30;99.90;;;;;;4990805;28;20986;-68
2023/04/02 04:54:25;;;;;;;0.80;0.80;;;8.40;99.90;;;;;;4987130;28;20427;-68
2023/04/02 04:56:56;;;;;;;1.33;0.80;;;8.40;99.90;;;;;;4990620;28;20514;-68
2023/04/02 04:59:47;;;;;;;0.73;0.73;;;8.40;99.90;;;;;;5007791;28;20596;-69
2023/04/02 05:02:18;;;;;;;3.10;1.70;;;8.40;99.90;;;;;;4979902;28;20551;-67
2023/04/02 05:04:49;;;;;;;1.10;1.00;;;8.40;99.90;;;;;;4989858;28;20427;-68
2023/04/02 05:07:19;;;;;;;1.23;1.10;;;8.40;99.90;;;;;;4992355;28;20438;-69
2023/04/02 05:10:03;;;;;;;0.67;0.67;;;8.40;99.90;;;;;;4992041;28;20474;-68
2023/04/02 05:12:42;;;;;;;1.03;0.90;;;8.40;99.90;;;;;;5006814;23;20481;-73
2023/04/02 05:15:28;;;;;;;0.80;0.80;;;8.40;99.90;;;;;;4990656;28;20808;-73
2023/04/02 05:18:10;;;;;;;1.27;1.00;;;8.40;99.90;;;;;;4984973;28;20491;-73
2023/04/02 05:20:41;;;;;;;1.10;0.60;;;8.40;99.90;;;;;;4979545;28;20894;-73
2023/04/02 05:23:27;;;;;;;1.10;0.97;;;8.40;99.90;;;;;;4990481;28;22071;-73
2023/04/02 05:26:15;;;;;;;1.37;0.93;;;8.40;99.90;;;;;;4991479;28;20434;-73
2023/04/02 05:28:52;;;;;;;1.23;0.90;;;8.40;99.90;;;;;;4980497;28;20598;-73
2023/04/02 05:31:31;;;;;;;1.20;0.80;;;8.40;99.90;;;;;;4979685;28;20982;-73
2023/04/02 05:33:57;;;;;;;1.23;1.20;;;8.40;99.90;;;;;;4985068;28;20878;-73
2023/04/02 05:36:28;;;;;;;2.70;0.90;;;8.40;99.90;;;;;;4990065;28;20477;-74
2023/04/02 05:38:55;;;;;;;2.60;1.00;;;8.50;99.90;;;;;;4987490;28;20199;-73
2023/04/02 05:41:40;;;;;;;1.93;0.90;;;8.50;99.90;;;;;;4974749;28;20469;-73
2023/04/02 05:44:08;;;;;;;1.40;1.30;;;8.50;99.90;;;;;;4974846;28;20438;-73
2023/04/02 05:46:44;;;;;;;1.00;0.90;;;8.60;99.90;;;;;;4978661;28;20435;-73
2023/04/02 05:49:20;;;;;;;1.53;1.10;;;8.70;99.90;;;;;;4976701;28;20438;-73
2023/04/02 05:51:50;;;;;;;1.30;1.20;;;8.70;99.90;;;;;;4976895;28;20509;-73
2023/04/02 05:54:35;;;;;;;1.20;1.00;;;8.70;99.90;;;;;;4976804;28;20443;-73
2023/04/02 05:57:19;;;;;;;3.13;1.30;;;8.80;99.90;;;;;;4976732;28;20439;-73
2023/04/02 05:59:57;;;;;;;1.07;0.97;;;8.80;99.90;;;;;;4974854;28;20443;-73
2023/04/02 06:02:35;;;;;;;2.07;1.50;;;8.80;99.90;;;;;;4978545;28;20505;-73
2023/04/02 06:05:15;;;;;;;1.87;0.93;;;8.80;99.90;;;;;;4981577;28;20767;-73
2023/04/02 06:07:57;;;;;;;2.77;1.50;;;8.80;99.90;;;;;;4986525;28;20540;-73
2023/04/02 06:10:34;;;;;;;1.57;1.47;;;8.70;99.90;;;;;;4984038;28;20916;-73
2023/04/02 06:13:06;;;;;;;1.10;0.80;;;8.70;99.90;;;;;;4993265;28;20484;-73
2023/04/02 06:15:34;;;;;;;1.70;1.00;;;8.80;99.90;;;;;;4985923;28;20437;-73
2023/04/02 06:18:27;;;;;;;1.97;1.37;;;8.80;99.90;;;;;;4985926;28;20431;-73
2023/04/02 06:20:53;;;;;;;2.63;1.00;;;8.80;99.90;;;;;;4991362;28;20502;-73
2023/04/02 06:23:47;;;;;;;1.77;1.30;;;8.90;99.90;;;;;;4991844;28;21031;-73
2023/04/02 06:26:34;;;;;;;2.60;1.13;;;8.90;99.90;;;;;;4977769;28;20441;-73
2023/04/02 06:29:16;;;;;;;2.30;1.20;;;8.90;99.90;;;;;;4988341;28;21046;-73
2023/04/02 06:31:46;;;;;;;1.50;1.07;;;9.10;99.90;;;;;;4987536;28;20468;-73
2023/04/02 06:34:17;;;;;;;1.30;1.20;;;9.20;99.90;;;;;;4990770;28;20455;-73
2023/04/02 06:36:44;;;;;;;1.40;1.00;;;9.30;99.90;;;;;;4989373;28;20443;-73
2023/04/02 06:39:24;;;;;;;1.37;1.20;;;9.40;99.90;;;;;;4989365;28;20796;-73
2023/04/02 06:42:03;;;;;;;1.63;1.33;;;9.40;99.90;;;;;;4989820;28;20553;-73
2023/04/02 06:44:34;;;;;;;1.33;1.23;;;9.40;99.90;;;;;;4984357;28;20446;-74
2023/04/02 06:47:30;;;;;;;1.53;1.30;;;9.40;99.90;;;;;;4989154;28;20963;-73
2023/04/02 06:50:21;;;;;;;1.50;1.40;;;9.40;99.90;;;;;;4991084;28;20477;-73
2023/04/02 06:52:53;;;;;;;1.30;1.10;;;9.40;99.90;;;;;;4988229;28;20466;-73
2023/04/02 06:55:19;;;;;;;2.27;1.23;;;9.60;99.90;;;;;;4986020;28;20529;-73
2023/04/02 06:57:45;;;;;;;2.90;2.53;;;9.60;99.90;;;;;;4990618;28;20529;-73
2023/04/02 07:00:31;;;;;;;3.20;2.90;;;9.70;99.90;;;;;;4987505;28;20307;-73
2023/04/02 07:03:00;;;;;;;2.07;1.30;;;9.80;99.90;;;;;;4980687;28;20439;-73
2023/04/02 07:05:26;;;;;;;2.20;1.30;;;9.80;99.90;;;;;;4986615;28;20875;-73
2023/04/02 07:07:52;;;;;;;1.30;0.97;;;9.80;99.90;;;;;;4990686;28;20513;-73
2023/04/02 07:10:19;;;;;;;3.10;0.93;;;9.90;99.90;;;;;;4985886;28;20513;-73
2023/04/02 07:12:45;;;;;;;2.00;1.33;;;9.80;99.90;;;;;;4991476;28;20199;-73
2023/04/02 07:15:15;;;;;;;9.23;7.20;;;9.80;99.90;;;;;;4986383;28;20439;-73
2023/04/02 07:17:41;;;;;;;1.33;1.20;;;9.90;99.90;;;;;;4986758;28;20437;-73
2023/04/02 07:20:28;;;;;;;1.60;1.47;;;10.00;99.90;;;;;;4990169;28;20955;-73
2023/04/02 07:22:53;;;;;;;1.00;0.90;;;10.20;99.90;;;;;;4985593;28;20180;-73
2023/04/02 07:25:19;;;;;;;1.40;1.17;;;10.30;99.90;;;;;;4978173;28;20442;-74
2023/04/02 07:27:45;;;;;;;1.20;1.10;;;10.40;99.90;;;;;;4972822;28;20206;-73
2023/04/02 07:30:10;;;;;;;0.83;0.83;;;10.40;99.90;;;;;;4974039;28;20184;-73
2023/04/02 07:32:37;;;;;;;1.10;1.00;;;10.40;99.90;;;;;;4977819;28;20685;-73
2023/04/02 07:35:04;;;;;;;1.00;1.00;;;10.20;99.90;;;;;;4976014;28;20178;-73
2023/04/02 07:37:30;;;;;;;3.33;2.00;;;10.20;99.90;;;;;;4973717;28;20546;-73
2023/04/02 07:39:55;;;;;;;1.00;1.00;;;10.10;99.90;;;;;;4973028;28;20467;-73
2023/04/02 07:42:21;;;;;;;1.43;1.13;;;10.20;99.90;;;;;;4973835;28;20896;-73
2023/04/02 07:44:46;;;;;;;3.70;1.43;;;10.20;99.90;;;;;;4975323;28;20609;-73
2023/04/02 07:47:12;;;;;;;1.90;1.30;;;10.20;99.90;;;;;;4973145;28;20577;-73
2023/04/02 07:49:37;;;;;;;1.23;1.17;;;10.10;99.90;;;;;;4972270;28;20204;-73
2023/04/02 07:52:03;;;;;;;1.43;0.90;;;10.10;99.90;;;;;;4975555;28;20294;-73
2023/04/02 07:54:29;;;;;;;1.57;1.20;;;10.10;99.90;;;;;;4973871;28;20192;-73
2023/04/02 07:56:55;;;;;;;1.87;1.20;;;10.20;99.90;;;;;;4975763;28;20454;-73
2023/04/02 07:59:20;;;;;;;1.47;1.33;;;10.40;99.90;;;;;;4984468;28;20190;-73
2023/04/02 08:01:47;;;;;;;1.60;1.30;;;10.40;99.90;;;;;;4975087;28;20305;-73
2023/04/02 08:04:18;;;;;;;1.20;1.10;;;10.50;99.90;;;;;;4977978;28;20230;-73
2023/04/02 08:06:43;;;;;;;1.17;1.00;;;10.70;99.90;;;;;;4982481;28;20434;-73
2023/04/02 08:09:09;;;;;;;1.10;1.00;;;10.60;99.90;;;;;;4975914;28;20806;-73
2023/04/02 08:11:35;;;;;;;1.10;0.83;;;10.50;99.90;;;;;;4978438;28;20723;-73
2023/04/02 08:14:00;;;;;;;1.07;0.93;;;10.50;99.90;;;;;;4991139;28;20183;-73
2023/04/02 08:16:26;;;;;;;1.00;1.00;;;10.50;99.90;;;;;;4991183;28;20194;-73
2023/04/02 08:18:52;;;;;;;1.73;1.30;;;10.70;99.90;;;;;;4968703;28;20602;-73
2023/04/02 08:21:17;;;;;;;1.53;1.00;;;10.70;99.90;;;;;;4990234;28;20459;-74
2023/04/02 08:23:43;;;;;;;1.93;0.90;;;10.70;99.90;;;;;;4990975;28;20234;-73
2023/04/02 08:26:09;;;;;;;1.90;1.80;;;10.70;99.90;;;;;;4986137;28;20226;-73
2023/04/02 08:28:34;;;;;;;1.00;1.00;;;10.80;99.90;;;;;;4986809;28;20446;-74
2023/04/02 08:31:00;;;;;;;1.30;1.20;;;11.00;99.90;;;;;;4986006;28;20214;-73
2023/04/02 08:33:26;;;;;;;1.43;0.90;;;10.90;99.90;;;;;;4989212;28;20188;-73
2023/04/02 08:35:52;;;;;;;1.53;1.43;;;10.80;99.90;;;;;;4987393;28;20438;-73
2023/04/02 08:38:19;;;;;;;1.43;1.17;;;10.80;99.90;;;;;;4988507;28;20241;-73
2023/04/02 08:40:50;;;;;;;1.10;1.00;;;10.70;99.90;;;;;;4993273;28;20199;-73
2023/04/02 08:43:40;;;;;;;0.77;0.77;;;10.80;99.90;;;;;;4988104;28;20492;-73
2023/04/02 08:46:28;;;;;;;0.80;0.80;;;10.80;99.90;;;;;;4989652;28;20462;-73
2023/04/02 08:48:57;;;;;;;1.00;1.00;;;10.80;99.90;;;;;;4988100;28;20850;-73
2023/04/02 08:51:35;;;;;;;1.97;1.23;;;10.80;99.90;;;;;;4988612;28;20469;-73
2023/04/02 08:54:16;;;;;;;0.80;0.80;;;10.80;99.90;;;;;;4987955;28;20474;-73
2023/04/02 08:57:07;;;;;;;1.57;1.03;;;10.80;99.90;;;;;;4986674;28;20441;-73
2023/04/02 08:59:35;;;;;;;2.77;1.23;;;11.00;99.90;;;;;;4985076;28;20453;-73
2023/04/02 09:02:09;;;;;;;0.90;0.90;;;11.30;99.90;;;;;;4993356;28;20462;-73
2023/04/02 09:04:35;;;;;;;0.83;0.83;;;11.50;99.90;;;;;;4991016;28;20517;-73
2023/04/02 09:07:01;;;;;;;1.10;1.00;;;11.70;99.90;;;;;;4990847;28;20445;-73
2023/04/02 09:09:27;;;;;;;1.00;0.87;;;11.50;99.90;;;;;;4980870;28;20463;-73
2023/04/02 09:12:02;;;;;;;1.43;1.33;;;11.50;99.90;;;;;;4991321;28;20474;-73
2023/04/02 09:15:06;;;;;;;1.20;1.10;;;11.60;99.90;;;;;;4992786;28;20179;-73
2023/04/02 09:17:31;;;;;;;0.83;0.83;;;11.70;99.90;;;;;;4984090;28;20524;-73
2023/04/02 09:20:07;;;;;;;1.20;1.10;;;11.70;99.90;;;;;;4990257;28;20465;-73
2023/04/02 09:22:33;;;;;;;2.07;1.97;;;11.80;99.90;;;;;;4985427;28;20215;-73
2023/04/02 09:25:04;;;;;;;1.80;1.70;;;11.80;99.90;;;;;;4992253;28;20457;-73
2023/04/02 09:27:35;;;;;;;2.27;1.73;;;11.80;99.90;;;;;;4992194;28;20489;-73
2023/04/02 09:30:25;;;;;;;2.30;1.50;;;11.80;99.90;;;;;;4988565;28;20849;-73
2023/04/02 09:32:53;;;;;;;1.40;1.30;;;11.80;99.90;;;;;;4988226;28;20445;-73
2023/04/02 09:35:24;;;;;;;1.77;1.40;;;11.80;99.90;;;;;;4982202;28;20439;-73
2023/04/02 09:38:16;;;;;;;1.60;1.50;;;11.80;99.90;;;;;;4975502;28;20530;-73
2023/04/02 09:40:50;;;;;;;1.87;1.53;;;11.60;99.90;;;;;;4978901;28;20458;-73
2023/04/02 09:43:21;;;;;;;1.80;1.57;;;11.60;99.90;;;;;;4984223;28;20484;-73
2023/04/02 09:45:57;;;;;;;2.30;2.10;;;11.60;99.90;;;;;;4976794;28;20864;-73
2023/04/02 09:48:34;;;;;;;3.23;2.07;;;11.70;99.90;;;;;;4987641;28;20438;-73
2023/04/02 09:51:13;;;;;;;6.63;4.30;;;11.80;99.90;;;;;;4982348;28;20487;-73
2023/04/02 09:54:00;;;;;;;1.53;1.43;;;11.70;99.90;;;;;;4987656;28;20449;-73
2023/04/02 09:56:26;;;;;;;1.73;1.63;;;11.60;99.90;;;;;;4986591;28;20437;-73
2023/04/02 09:59:06;;;;;;;1.50;1.40;;;11.50;99.90;;;;;;4989332;28;21027;-73
2023/04/02 10:01:37;;;;;;;1.90;1.50;;;11.40;99.90;;;;;;4990310;28;20278;-73
2023/04/02 10:04:05;;;;;;;2.60;1.50;;;11.50;99.90;;;;;;4994286;28;20435;-73
2023/04/02 10:06:33;;;;;;;2.53;1.80;;;11.40;99.90;;;;;;4992113;28;20963;-73
2023/04/02 10:09:18;;;;;;;2.53;1.50;;;11.30;99.90;;;;;;4988512;28;20441;-73
2023/04/02 10:11:45;;;;;;;1.80;1.70;;;11.30;99.90;;;;;;4988411;28;20474;-73
2023/04/02 10:14:22;;;;;;;2.40;1.43;;;11.20;99.90;;;;;;4990968;28;20817;-73
2023/04/02 10:16:55;;;;;;;1.63;1.53;;;11.10;99.90;;;;;;4991913;28;20461;-73
2023/04/02 10:19:38;;;;;;;4.87;1.70;;;11.10;99.90;;;;;;4986038;28;21026;-73
2023/04/02 10:22:11;;;;;;;1.90;1.70;;;11.20;99.90;;;;;;4990954;28;20557;-73
2023/04/02 10:24:36;;;;;;;2.30;2.10;;;11.20;99.90;;;;;;4982119;28;20524;-73
2023/04/02 10:27:24;;;;;;;1.80;1.70;;;11.20;99.90;;;;;;4982678;28;20443;-73
2023/04/02 10:30:14;;;;;;;2.10;1.40;;;11.20;99.90;;;;;;4990148;28;20533;-73
2023/04/02 10:32:54;;;;;;;1.10;1.00;;;11.20;99.90;;;;;;4987317;28;20550;-73
2023/04/02 10:35:45;;;;;;;1.70;1.60;;;11.20;99.90;;;;;;4983156;28;20442;-74
2023/04/02 10:38:40;;;;;;;2.37;1.60;;;11.20;99.90;;;;;;4971030;28;20438;-73
2023/04/02 10:41:25;;;;;;;1.60;1.40;;;11.10;99.90;;;;;;4990667;28;20458;-74
2023/04/02 10:44:23;;;;;;;1.63;1.47;;;11.00;99.90;;;;;;4985296;28;20948;-73
2023/04/02 10:47:12;;;;;;;1.53;1.43;;;11.00;99.90;;;;;;4981169;28;21130;-73
2023/04/02 10:49:46;;;;;;;7.50;4.90;;;11.00;99.90;;;;;;4984553;28;20807;-73
2023/04/02 10:52:34;;;;;;;2.47;2.27;;;11.00;99.90;;;;;;4991825;28;20472;-73
2023/04/02 10:55:13;;;;;;;6.30;1.60;;;11.00;99.90;;;;;;4987470;28;20521;-73
2023/04/02 10:57:40;;;;;;;2.70;1.63;;;11.10;99.90;;;;;;4988347;28;20443;-73
2023/04/02 11:00:18;;;;;;;5.10;3.87;;;11.10;99.90;;;;;;4987276;28;20472;-73
2023/04/02 11:02:52;;;;;;;1.50;1.40;;;11.30;99.90;;;;;;4988229;28;20860;-73
2023/04/02 11:05:22;;;;;;;2.27;1.83;;;11.30;99.90;;;;;;4984864;28;20430;-73
2023/04/02 11:08:01;;;;;;;1.20;1.10;;;11.50;99.90;;;;;;4993621;28;20434;-73
2023/04/02 11:10:30;;;;;;;1.43;1.33;;;11.50;99.90;;;;;;4979031;28;20431;-73
2023/04/02 11:13:22;;;;;;;1.23;1.10;;;11.60;99.90;;;;;;5034680;23;20572;-67
2023/04/02 11:15:48;;;;;;;1.60;1.50;;;11.70;99.90;;;;;;5027442;28;20435;-67
2023/04/02 11:18:34;;;;;;;1.23;1.10;;;11.80;99.90;;;;;;5025350;28;20506;-67
2023/04/02 11:21:04;;;;;;;1.40;1.20;;;11.80;99.90;;;;;;5028484;28;20460;-67
2023/04/02 11:23:58;;;;;;;1.67;1.10;;;11.80;99.90;;;;;;5011079;28;20430;-68
2023/04/02 11:26:36;;;;;;;1.67;1.50;;;11.90;99.90;;;;;;5002760;28;20524;-68
2023/04/02 11:29:15;;;;;;;2.23;1.63;;;12.00;99.90;;;;;;5009740;28;20516;-65
2023/04/02 11:31:42;;;;;;;1.73;1.30;;;12.10;99.90;;;;;;5008023;28;20552;-66
2023/04/02 11:34:39;;;;;;;2.43;1.60;;;12.00;99.90;;;;;;5009545;28;20437;-66
2023/04/02 11:37:28;;;;;;;1.43;1.30;;;11.80;99.90;;;;;;4993809;28;20955;-67
2023/04/02 11:39:58;;;;;;;1.40;1.30;;;11.80;99.90;;;;;;5009633;28;20479;-67
2023/04/02 11:42:34;;;;;;;1.40;1.20;;;11.80;99.90;;;;;;5004500;28;20468;-67
2023/04/02 11:45:22;;;;;;;1.43;1.17;;;11.90;99.90;;;;;;5005665;28;21046;-67
2023/04/02 11:47:59;;;;;;;1.30;1.20;;;12.00;99.90;;;;;;5006119;28;20449;-67
2023/04/02 11:50:32;;;;;;;1.57;1.47;;;12.20;99.90;;;;;;5005030;28;20467;-66
2023/04/02 11:53:03;;;;;;;4.07;2.73;;;12.40;99.90;;;;;;5004758;28;20461;-66
2023/04/02 11:55:33;;;;;;;4.90;4.40;;;12.30;99.90;;;;;;5005586;28;21995;-67
2023/04/02 11:58:19;;;;;;;1.73;1.30;;;12.30;99.90;;;;;;5005931;28;20445;-67
2023/04/02 12:01:04;;;;;;;1.10;1.00;;;12.40;99.90;;;;;;5005137;28;20454;-67
2023/04/02 12:03:54;;;;;;;1.50;0.90;;;12.80;99.90;;;;;;4989428;28;20429;-66
2023/04/02 12:06:50;;;;;;;1.47;1.20;;;13.00;99.90;;;;;;5005842;28;20437;-68
2023/04/02 12:09:42;;;;;;;0.97;0.90;;;13.00;99.90;;;;;;5005604;28;20807;-67
2023/04/02 12:12:30;;;;;;;3.33;3.03;;;13.00;99.90;;;;;;5005234;28;21198;-66
2023/04/02 12:14:57;;;;;;;3.30;3.00;;;13.20;99.90;;;;;;5005320;28;20946;-67
2023/04/02 12:17:32;;;;;;;1.40;1.30;;;13.30;99.90;;;;;;5008864;28;20445;-66
2023/04/02 12:20:12;;;;;;;0.93;0.90;;;13.40;99.90;;;;;;5005866;28;20932;-66
2023/04/02 12:22:44;;;;;;;0.80;0.80;;;13.40;99.90;;;;;;5009271;28;20469;-67
2023/04/02 12:25:30;;;;;;;3.20;2.57;;;13.60;99.90;;;;;;5000331;28;20441;-67
2023/04/02 12:28:17;;;;;;;0.70;0.70;;;13.70;99.90;;;;;;5010252;28;20434;-67
2023/04/02 12:30:44;;;;;;;1.30;1.20;;;13.60;99.90;;;;;;5005631;28;20872;-66
2023/04/02 12:33:23;;;;;;;0.63;0.63;;;13.50;99.90;;;;;;5009528;28;20429;-67
2023/04/02 12:35:53;;;;;;;2.40;2.20;;;13.60;99.90;;;;;;5009283;28;20824;-67
2023/04/02 12:38:27;;;;;;;1.60;1.50;;;13.90;99.90;;;;;;4989710;28;20471;-67
2023/04/02 12:41:05;;;;;;;3.53;1.63;;;14.00;99.90;;;;;;5008593;28;20977;-68
2023/04/02 12:43:33;;;;;;;2.37;2.23;;;13.90;99.90;;;;;;5011420;28;20469;-67
2023/04/02 12:46:01;;;;;;;1.30;1.20;;;14.10;99.90;;;;;;5010597;28;20488;-66
2023/04/02 12:48:28;;;;;;;0.83;0.83;;;14.20;99.90;;;;;;5009383;28;20441;-67
2023/04/02 12:50:55;;;;;;;1.13;1.03;;;14.40;99.90;;;;;;5008148;28;20441;-67
2023/04/02 12:53:28;;;;;;;0.80;0.80;;;14.60;99.90;;;;;;5009324;28;20836;-66
2023/04/02 12:55:54;;;;;;;1.10;1.00;;;15.00;99.90;;;;;;5006578;28;20808;-67
2023/04/02 12:58:30;;;;;;;2.30;2.10;;;15.00;99.90;;;;;;5009576;28;20965;-67
2023/04/02 13:01:30;;;;;;;1.57;1.47;;;14.80;99.90;;;;;;5009738;28;20441;-67
2023/04/02 13:04:07;;;;;;;2.00;1.80;;;14.70;99.90;;;;;;4976421;28;20448;-67
2023/04/02 13:06:34;;;;;;;1.30;1.20;;;14.90;99.90;;;;;;5010541;28;20441;-67
2023/04/02 13:09:02;;;;;;;0.83;0.80;;;14.90;99.90;;;;;;5006481;28;20430;-67
2023/04/02 13:11:36;;;;;;;0.83;0.80;;;14.80;99.90;;;;;;5010167;28;20492;-67
2023/04/02 13:14:05;;;;;;;1.50;1.20;;;14.60;99.90;;;;;;5008500;28;20531;-67
2023/04/02 13:16:36;;;;;;;0.87;0.87;;;14.30;99.90;;;;;;5009159;28;20444;-68
2023/04/02 13:19:26;;;;;;;1.07;1.00;;;14.20;99.90;;;;;;5004216;28;20851;-66
2023/04/02 13:21:52;;;;;;;1.57;1.43;;;14.00;99.90;;;;;;5008415;28;20527;-66
2023/04/02 13:24:21;;;;;;;0.80;0.80;;;13.80;99.90;;;;;;5004410;28;20446;-67
2023/04/02 13:26:48;;;;;;;1.73;1.63;;;13.70;99.90;;;;;;5005432;28;21008;-67
2023/04/02 13:29:34;;;;;;;1.70;1.10;;;13.70;99.90;;;;;;5007839;28;20442;-66
2023/04/02 13:32:04;;;;;;;2.17;1.97;;;13.60;99.90;;;;;;5008805;28;20452;-66
2023/04/02 13:34:30;;;;;;;1.57;1.30;;;13.40;99.90;;;;;;5009289;28;20529;-68